Time,TemperatureF,DewpointF,PressureIn,WindDirection,WindDirectionDegrees,WindSpeedMPH,WindSpeedGustMPH,Humidity,HourlyPrecipIn,Conditions,Clouds,dailyrainin,SoftwareType,DateUTC
2013-03-09 00:00:00,37.9,31.4,30.01,West,275,0.0,6.0,77,0.00,,,0.00,VWS V14.01,2013-03-09 07:00:00,
2013-03-09 00:01:00,37.8,33.1,29.99,West,259,3.0,8.0,83,0.02,,,0.07,VWS V14.01,2013-03-09 07:01:00,
2013-03-09 00:06:00,37.8,33.1,29.99,WSW,245,2.0,9.0,83,0.02,,,0.00,VWS V14.01,2013-03-09 07:06:00,
2013-03-09 00:11:00,37.8,33.1,29.99,SSW,210,5.0,10.0,83,0.02,,,0.00,VWS V14.01,2013-03-09 07:11:00,
2013-03-09 00:15:00,37.8,31.6,30.02,West,275,0.0,0.0,78,0.00,,,0.00,VWS V14.01,2013-03-09 07:15:00,
2013-03-09 00:16:00,37.8,33.1,30.00,SW,230,6.0,10.0,83,0.02,,,0.00,VWS V14.01,2013-03-09 07:16:00,
2013-03-09 00:21:00,37.8,33.1,30.01,SW,234,3.0,10.0,83,0.01,,,0.00,VWS V14.01,2013-03-09 07:21:00,
2013-03-09 00:26:00,37.9,33.2,30.01,WSW,252,4.0,12.0,83,0.01,,,0.00,VWS V14.01,2013-03-09 07:26:00,
2013-03-09 00:30:00,37.9,31.4,30.01,West,275,1.0,8.0,77,0.00,,,0.00,VWS V14.01,2013-03-09 07:30:00,
2013-03-09 00:31:00,37.9,33.2,30.02,West,276,4.0,12.0,83,0.01,,,0.00,VWS V14.01,2013-03-09 07:31:00,
2013-03-09 00:36:00,38.0,32.7,30.01,WSW,254,5.0,9.0,81,0.01,,,0.00,VWS V14.01,2013-03-09 07:36:00,
2013-03-09 00:41:00,38.0,32.1,30.01,WSW,252,4.0,10.0,79,0.01,,,0.00,VWS V14.01,2013-03-09 07:41:00,
2013-03-09 00:45:00,38.0,28.8,30.01,SW,215,4.0,9.0,69,0.00,,,0.00,VWS V14.01,2013-03-09 07:45:00,
2013-03-09 00:46:00,38.0,31.8,30.01,West,275,5.0,10.0,78,0.01,,,0.00,VWS V14.01,2013-03-09 07:46:00,
2013-03-09 00:51:00,38.1,31.5,30.01,West,277,0.0,6.0,77,0.00,,,0.00,VWS V14.01,2013-03-09 07:51:00,
2013-03-09 00:56:00,38.0,31.4,30.01,West,275,0.0,6.0,77,0.00,,,0.00,VWS V14.01,2013-03-09 07:56:00,
2013-03-09 01:00:00,37.5,28.3,30.01,SSW,194,0.0,8.0,69,0.00,,,0.00,VWS V14.01,2013-03-09 08:00:00,
2013-03-09 01:01:00,37.9,31.4,30.01,West,275,0.0,6.0,77,0.00,,,0.00,VWS V14.01,2013-03-09 08:01:00,
2013-03-09 01:06:00,37.8,31.2,30.01,West,275,0.0,0.0,77,0.00,,,0.00,VWS V14.01,2013-03-09 08:06:00,
2013-03-09 01:11:00,37.8,31.2,30.01,West,275,0.0,0.0,77,0.00,,,0.00,VWS V14.01,2013-03-09 08:11:00,
2013-03-09 01:15:00,37.0,27.4,30.01,South,184,0.0,6.0,68,0.00,,,0.00,VWS V14.01,2013-03-09 08:15:00,
2013-03-09 01:16:00,37.8,31.6,30.02,West,275,0.0,0.0,78,0.00,,,0.00,VWS V14.01,2013-03-09 08:16:00,
2013-03-09 01:21:00,37.8,31.6,30.01,West,275,0.0,0.0,78,0.00,,,0.00,VWS V14.01,2013-03-09 08:21:00,
2013-03-09 01:26:00,37.8,31.9,30.01,West,275,0.0,0.0,79,0.00,,,0.00,VWS V14.01,2013-03-09 08:26:00,
2013-03-09 01:30:00,36.4,26.9,30.02,South,188,1.0,5.0,68,0.00,,,0.00,VWS V14.01,2013-03-09 08:30:00,
2013-03-09 01:31:00,37.9,31.4,30.00,West,275,0.0,8.0,77,0.00,,,0.00,VWS V14.01,2013-03-09 08:31:00,
2013-03-09 01:36:00,38.0,31.1,30.01,WSW,242,1.0,6.0,76,0.00,,,0.00,VWS V14.01,2013-03-09 08:36:00,
2013-03-09 01:41:00,38.1,29.9,30.01,SW,230,7.0,8.0,72,0.00,,,0.00,VWS V14.01,2013-03-09 08:41:00,
2013-03-09 01:45:00,36.0,26.1,30.02,SW,225,8.0,8.0,67,0.00,,,0.00,VWS V14.01,2013-03-09 08:45:00,
2013-03-09 01:47:00,38.0,28.8,30.01,SW,227,6.0,9.0,69,0.00,,,0.00,VWS V14.01,2013-03-09 08:47:00,
2013-03-09 01:51:00,37.9,28.3,30.01,SSW,208,2.0,8.0,68,0.00,,,0.00,VWS V14.01,2013-03-09 08:51:00,
2013-03-09 01:56:00,37.7,28.1,30.01,SSW,195,2.0,8.0,68,0.00,,,0.00,VWS V14.01,2013-03-09 08:56:00,
2013-03-09 02:00:00,35.2,25.4,30.00,WSW,244,1.0,11.0,67,0.00,,,0.00,VWS V14.01,2013-03-09 09:00:00,
2013-03-09 02:02:00,37.5,28.3,30.01,SSW,194,3.0,8.0,69,0.00,,,0.00,VWS V14.01,2013-03-09 09:02:00,
2013-03-09 02:07:00,37.4,28.2,30.01,SSW,194,0.0,0.0,69,0.00,,,0.00,VWS V14.01,2013-03-09 09:07:00,
2013-03-09 02:12:00,37.2,28.0,30.01,South,184,2.0,4.0,69,0.00,,,0.00,VWS V14.01,2013-03-09 09:12:00,
2013-03-09 02:15:00,34.7,24.9,30.01,SW,223,6.0,13.0,67,0.00,,,0.00,VWS V14.01,2013-03-09 09:15:00,
2013-03-09 02:17:00,37.1,27.5,30.01,South,184,0.0,6.0,68,0.00,,,0.00,VWS V14.01,2013-03-09 09:17:00,
2013-03-09 02:22:00,36.9,27.3,30.01,South,182,1.0,5.0,68,0.00,,,0.00,VWS V14.01,2013-03-09 09:22:00,
2013-03-09 02:27:00,36.6,27.0,30.01,South,182,0.0,5.0,68,0.00,,,0.00,VWS V14.01,2013-03-09 09:27:00,
2013-03-09 02:30:00,34.9,24.7,30.01,SW,232,4.0,17.0,66,0.00,,,0.00,VWS V14.01,2013-03-09 09:30:00,
2013-03-09 02:32:00,36.4,26.9,30.02,South,182,2.0,5.0,68,0.00,,,0.00,VWS V14.01,2013-03-09 09:32:00,
2013-03-09 02:37:00,36.2,26.7,30.02,WSW,245,0.0,5.0,68,0.00,,,0.00,VWS V14.01,2013-03-09 09:37:00,
2013-03-09 02:42:00,36.1,26.2,30.02,SW,236,1.0,7.0,67,0.00,,,0.00,VWS V14.01,2013-03-09 09:42:00,
2013-03-09 02:45:00,34.5,24.7,30.01,SW,223,6.0,17.0,67,0.00,,,0.00,VWS V14.01,2013-03-09 09:45:00,
2013-03-09 02:47:00,36.0,26.1,30.02,SW,218,2.0,7.0,67,0.00,,,0.00,VWS V14.01,2013-03-09 09:47:00,
2013-03-09 02:52:00,35.9,25.7,30.01,WSW,238,0.0,11.0,66,0.00,,,0.00,VWS V14.01,2013-03-09 09:52:00,
2013-03-09 02:57:00,35.6,25.4,30.01,SSW,213,2.0,11.0,66,0.00,,,0.00,VWS V14.01,2013-03-09 09:57:00,
2013-03-09 03:00:00,34.5,23.6,30.01,SSW,211,4.0,16.0,64,0.00,,,0.00,VWS V14.01,2013-03-09 10:00:00,
2013-03-09 03:02:00,35.2,25.4,30.00,SW,218,2.0,11.0,67,0.00,,,0.00,VWS V14.01,2013-03-09 10:02:00,
2013-03-09 03:07:00,35.0,25.2,30.00,SSW,206,2.0,7.0,67,0.00,,,0.00,VWS V14.01,2013-03-09 10:07:00,
2013-03-09 03:12:00,34.8,25.3,30.01,SSW,203,7.0,10.0,68,0.00,,,0.00,VWS V14.01,2013-03-09 10:12:00,
2013-03-09 03:15:00,33.8,23.3,30.01,SSW,213,7.0,15.0,65,0.00,,,0.00,VWS V14.01,2013-03-09 10:15:00,
2013-03-09 03:17:00,34.7,24.9,30.01,SSW,203,8.0,12.0,67,0.00,,,0.00,VWS V14.01,2013-03-09 10:17:00,
2013-03-09 03:22:00,34.7,24.9,30.02,SW,215,11.0,14.0,67,0.00,,,0.00,VWS V14.01,2013-03-09 10:22:00,
2013-03-09 03:27:00,34.9,24.7,30.01,SW,218,9.0,17.0,66,0.00,,,0.00,VWS V14.01,2013-03-09 10:27:00,
2013-03-09 03:30:00,33.3,22.8,30.02,SW,215,4.0,15.0,65,0.00,,,0.00,VWS V14.01,2013-03-09 10:30:00,
2013-03-09 03:32:00,34.9,24.7,30.01,SW,214,12.0,17.0,66,0.00,,,0.00,VWS V14.01,2013-03-09 10:32:00,
2013-03-09 03:37:00,34.7,24.5,30.01,WSW,242,6.0,17.0,66,0.00,,,0.00,VWS V14.01,2013-03-09 10:37:00,
2013-03-09 03:42:00,34.7,24.5,30.01,SSW,202,6.0,17.0,66,0.00,,,0.00,VWS V14.01,2013-03-09 10:42:00,
2013-03-09 03:45:00,33.0,22.2,30.03,SW,232,4.0,12.0,64,0.00,,,0.00,VWS V14.01,2013-03-09 10:45:00,
2013-03-09 03:47:00,34.5,24.7,30.01,SW,234,6.0,17.0,67,0.00,,,0.00,VWS V14.01,2013-03-09 10:47:00,
2013-03-09 03:52:00,34.5,24.3,30.01,SW,217,3.0,13.0,66,0.00,,,0.00,VWS V14.01,2013-03-09 10:52:00,
2013-03-09 03:57:00,34.4,24.2,30.01,WSW,253,9.0,16.0,66,0.00,,,0.00,VWS V14.01,2013-03-09 10:57:00,
2013-03-09 04:00:00,32.5,22.1,30.03,SW,232,3.0,7.0,65,0.00,,,0.00,VWS V14.01,2013-03-09 11:00:00,
2013-03-09 04:02:00,34.5,23.6,30.01,SW,223,9.0,16.0,64,0.00,,,0.00,VWS V14.01,2013-03-09 11:02:00,
2013-03-09 04:07:00,34.4,23.5,30.01,SW,225,8.0,15.0,64,0.00,,,0.00,VWS V14.01,2013-03-09 11:07:00,
2013-03-09 04:12:00,34.2,23.3,30.01,SW,214,12.0,15.0,64,0.00,,,0.00,VWS V14.01,2013-03-09 11:12:00,
2013-03-09 04:15:00,32.2,21.8,30.03,SSW,204,9.0,12.0,65,0.00,,,0.00,VWS V14.01,2013-03-09 11:15:00,
2013-03-09 04:17:00,33.8,23.3,30.01,SSW,213,10.0,15.0,65,0.00,,,0.00,VWS V14.01,2013-03-09 11:17:00,
2013-03-09 04:22:00,33.7,22.8,30.01,SSW,198,13.0,15.0,64,0.00,,,0.00,VWS V14.01,2013-03-09 11:22:00,
2013-03-09 04:27:00,33.6,22.7,30.01,SSW,209,4.0,15.0,64,0.00,,,0.00,VWS V14.01,2013-03-09 11:27:00,
2013-03-09 04:30:00,31.7,21.3,30.04,SSW,213,3.0,15.0,65,0.00,,,0.00,VWS V14.01,2013-03-09 11:30:00,
2013-03-09 04:32:00,33.3,22.8,30.02,SW,223,6.0,15.0,65,0.00,,,0.00,VWS V14.01,2013-03-09 11:32:00,
2013-03-09 04:37:00,33.1,22.6,30.02,SSW,213,3.0,10.0,65,0.00,,,0.00,VWS V14.01,2013-03-09 11:37:00,
2013-03-09 04:42:00,33.0,22.2,30.03,SSW,196,6.0,12.0,64,0.00,,,0.00,VWS V14.01,2013-03-09 11:42:00,
2013-03-09 04:45:00,31.1,21.4,30.05,SW,219,2.0,7.0,67,0.00,,,0.00,VWS V14.01,2013-03-09 11:45:00,
2013-03-09 04:47:00,33.0,22.2,30.03,SW,236,5.0,12.0,64,0.00,,,0.00,VWS V14.01,2013-03-09 11:47:00,
2013-03-09 04:52:00,32.8,22.0,30.03,WSW,250,2.0,7.0,64,0.00,,,0.00,VWS V14.01,2013-03-09 11:52:00,
2013-03-09 04:57:00,32.7,21.9,30.04,WSW,245,0.0,7.0,64,0.00,,,0.00,VWS V14.01,2013-03-09 11:57:00,
2013-03-09 05:00:00,30.7,21.4,30.05,West,266,2.0,9.0,68,0.00,,,0.00,VWS V14.01,2013-03-09 12:00:00,
2013-03-09 05:02:00,32.5,22.1,30.03,WSW,237,4.0,7.0,65,0.00,,,0.00,VWS V14.01,2013-03-09 12:02:00,
2013-03-09 05:07:00,32.3,21.9,30.03,SW,225,3.0,11.0,65,0.00,,,0.00,VWS V14.01,2013-03-09 12:07:00,
2013-03-09 05:12:00,32.3,21.9,30.03,SSW,192,8.0,11.0,65,0.00,,,0.00,VWS V14.01,2013-03-09 12:12:00,
2013-03-09 05:15:00,30.7,21.1,30.06,WNW,299,0.0,10.0,67,0.00,,,0.00,VWS V14.01,2013-03-09 12:15:00,
2013-03-09 05:17:00,32.2,21.8,30.03,SW,219,8.0,12.0,65,0.00,,,0.00,VWS V14.01,2013-03-09 12:17:00,
2013-03-09 05:22:00,32.2,21.4,30.03,SSW,195,4.0,15.0,64,0.00,,,0.00,VWS V14.01,2013-03-09 12:22:00,
2013-03-09 05:27:00,32.0,21.6,30.04,SSW,210,3.0,15.0,65,0.00,,,0.00,VWS V14.01,2013-03-09 12:27:00,
2013-03-09 05:30:00,30.6,21.3,30.07,WNW,291,0.0,6.0,68,0.00,,,0.00,VWS V14.01,2013-03-09 12:30:00,
2013-03-09 05:32:00,31.7,21.3,30.04,SSW,194,3.0,15.0,65,0.00,,,0.00,VWS V14.01,2013-03-09 12:32:00,
2013-03-09 05:37:00,31.5,21.5,30.04,SSW,200,4.0,7.0,66,0.00,,,0.00,VWS V14.01,2013-03-09 12:37:00,
2013-03-09 05:42:00,31.3,21.3,30.05,SW,235,4.0,7.0,66,0.00,,,0.00,VWS V14.01,2013-03-09 12:42:00,
2013-03-09 05:45:00,30.3,21.0,30.08,WNW,290,1.0,3.0,68,0.00,,,0.00,VWS V14.01,2013-03-09 12:45:00,
2013-03-09 05:47:00,31.1,21.4,30.05,SW,227,3.0,7.0,67,0.00,,,0.00,VWS V14.01,2013-03-09 12:47:00,
2013-03-09 05:52:00,31.0,21.3,30.05,SW,224,6.0,9.0,67,0.00,,,0.00,VWS V14.01,2013-03-09 12:52:00,
2013-03-09 05:57:00,30.9,23.0,30.05,WSW,252,2.0,9.0,72,0.00,,,0.00,VWS V14.01,2013-03-09 12:57:00,
2013-03-09 06:00:00,29.9,21.0,30.07,WNW,288,2.0,3.0,69,0.00,,,0.00,VWS V14.01,2013-03-09 13:00:00,
2013-03-09 06:02:00,30.7,21.4,30.05,West,264,0.0,9.0,68,0.00,,,0.00,VWS V14.01,2013-03-09 13:02:00,
2013-03-09 06:07:00,30.6,21.3,30.06,West,278,3.0,8.0,68,0.00,,,0.00,VWS V14.01,2013-03-09 13:07:00,
2013-03-09 06:12:00,30.5,21.2,30.06,West,273,4.0,10.0,68,0.00,,,0.00,VWS V14.01,2013-03-09 13:12:00,
2013-03-09 06:15:00,29.6,21.0,30.08,WNW,286,0.0,2.0,70,0.00,,,0.00,VWS V14.01,2013-03-09 13:15:00,
2013-03-09 06:17:00,30.7,21.1,30.06,WNW,301,1.0,10.0,67,0.00,,,0.00,VWS V14.01,2013-03-09 13:17:00,
2013-03-09 06:22:00,30.6,21.3,30.07,NNW,329,5.0,6.0,68,0.00,,,0.00,VWS V14.01,2013-03-09 13:22:00,
2013-03-09 06:27:00,30.5,21.2,30.07,NNW,340,1.0,6.0,68,0.00,,,0.00,VWS V14.01,2013-03-09 13:27:00,
2013-03-09 06:30:00,30.2,21.9,30.09,WNW,282,0.0,0.0,71,0.00,,,0.00,VWS V14.01,2013-03-09 13:30:00,
2013-03-09 06:32:00,30.6,21.3,30.07,WNW,291,0.0,6.0,68,0.00,,,0.00,VWS V14.01,2013-03-09 13:32:00,
2013-03-09 06:37:00,30.6,21.3,30.07,WNW,290,0.0,3.0,68,0.00,,,0.00,VWS V14.01,2013-03-09 13:37:00,
2013-03-09 06:42:00,30.5,21.2,30.07,WNW,290,2.0,3.0,68,0.00,,,0.00,VWS V14.01,2013-03-09 13:42:00,
2013-03-09 06:45:00,32.8,23.1,30.08,WNW,282,0.0,0.0,67,0.00,,,0.00,VWS V14.01,2013-03-09 13:45:00,
2013-03-09 06:47:00,30.4,21.1,30.08,WNW,290,1.0,3.0,68,0.00,,,0.00,VWS V14.01,2013-03-09 13:47:00,
2013-03-09 06:52:00,30.2,20.9,30.08,WNW,290,0.0,2.0,68,0.00,,,0.00,VWS V14.01,2013-03-09 13:52:00,
2013-03-09 06:57:00,30.1,21.2,30.08,WNW,288,0.0,3.0,69,0.00,,,0.00,VWS V14.01,2013-03-09 13:57:00,
2013-03-09 07:00:00,34.1,22.1,30.08,WNW,282,0.0,5.0,61,0.00,,,0.00,VWS V14.01,2013-03-09 14:00:00,
2013-03-09 07:02:00,29.9,21.0,30.07,WNW,288,0.0,3.0,69,0.00,,,0.00,VWS V14.01,2013-03-09 14:02:00,
2013-03-09 07:07:00,29.8,20.9,30.08,WNW,286,0.0,2.0,69,0.00,,,0.00,VWS V14.01,2013-03-09 14:07:00,
2013-03-09 07:12:00,29.6,21.0,30.08,WNW,286,0.0,2.0,70,0.00,,,0.00,VWS V14.01,2013-03-09 14:12:00,
2013-03-09 07:15:00,35.1,21.0,30.09,WNW,282,2.0,5.0,56,0.00,,,0.00,VWS V14.01,2013-03-09 14:15:00,
2013-03-09 07:17:00,29.6,21.0,30.08,WNW,286,0.0,2.0,70,0.00,,,0.00,VWS V14.01,2013-03-09 14:17:00,
2013-03-09 07:22:00,29.6,21.0,30.08,WNW,286,0.0,0.0,70,0.00,,,0.00,VWS V14.01,2013-03-09 14:22:00,
2013-03-09 07:27:00,29.7,21.5,30.08,West,281,0.0,0.0,71,0.00,,,0.00,VWS V14.01,2013-03-09 14:27:00,
2013-03-09 07:30:00,34.4,20.3,30.09,WNW,282,2.0,5.0,56,0.00,,,0.00,VWS V14.01,2013-03-09 14:30:00,
2013-03-09 07:32:00,30.2,21.9,30.09,WNW,282,0.0,0.0,71,0.00,,,0.00,VWS V14.01,2013-03-09 14:32:00,
2013-03-09 07:37:00,31.0,22.4,30.09,WNW,282,0.0,0.0,70,0.00,,,0.00,VWS V14.01,2013-03-09 14:37:00,
2013-03-09 07:42:00,31.9,22.9,30.09,WNW,282,0.0,0.0,69,0.00,,,0.00,VWS V14.01,2013-03-09 14:42:00,
2013-03-09 07:45:00,35.6,22.3,30.09,West,268,2.0,5.0,58,0.00,,,0.00,VWS V14.01,2013-03-09 14:45:00,
2013-03-09 07:47:00,32.8,23.1,30.08,WNW,282,0.0,0.0,67,0.00,,,0.00,VWS V14.01,2013-03-09 14:47:00,
2013-03-09 07:52:00,33.4,22.2,30.08,West,281,0.0,5.0,63,0.00,,,0.00,VWS V14.01,2013-03-09 14:52:00,
2013-03-09 07:57:00,33.7,21.7,30.08,WNW,282,0.0,5.0,61,0.00,,,0.00,VWS V14.01,2013-03-09 14:57:00,
2013-03-09 08:00:00,37.2,21.7,30.09,South,173,2.0,7.0,53,0.00,,,0.00,VWS V14.01,2013-03-09 15:00:00,
2013-03-09 08:03:00,34.1,22.1,30.08,WNW,282,0.0,5.0,61,0.00,,,0.00,VWS V14.01,2013-03-09 15:03:00,
2013-03-09 08:08:00,34.6,22.2,30.09,West,281,0.0,3.0,60,0.00,,,0.00,VWS V14.01,2013-03-09 15:08:00,
2013-03-09 08:13:00,35.2,22.3,30.09,WNW,282,0.0,3.0,59,0.00,,,0.00,VWS V14.01,2013-03-09 15:13:00,
2013-03-09 08:15:00,38.9,20.9,30.09,SSW,204,3.0,9.0,48,0.00,,,0.00,VWS V14.01,2013-03-09 15:15:00,
2013-03-09 08:18:00,35.1,21.0,30.09,WNW,282,2.0,2.0,56,0.00,,,0.00,VWS V14.01,2013-03-09 15:18:00,
2013-03-09 08:23:00,34.9,20.8,30.09,West,281,0.0,5.0,56,0.00,,,0.00,VWS V14.01,2013-03-09 15:23:00,
2013-03-09 08:28:00,34.7,20.6,30.09,WNW,282,1.0,5.0,56,0.00,,,0.00,VWS V14.01,2013-03-09 15:28:00,
2013-03-09 08:30:00,39.7,21.1,30.10,SW,227,0.0,8.0,47,0.00,,,0.00,VWS V14.01,2013-03-09 15:30:00,
2013-03-09 08:33:00,34.4,19.9,30.09,WNW,282,1.0,2.0,55,0.00,,,0.00,VWS V14.01,2013-03-09 15:33:00,
2013-03-09 08:38:00,34.4,20.3,30.09,WNW,282,0.0,2.0,56,0.00,,,0.00,VWS V14.01,2013-03-09 15:38:00,
2013-03-09 08:43:00,34.5,21.3,30.09,West,263,4.0,4.0,58,0.00,,,0.00,VWS V14.01,2013-03-09 15:43:00,
2013-03-09 08:45:00,38.7,20.7,30.10,WSW,243,3.0,10.0,48,0.00,,,0.00,VWS V14.01,2013-03-09 15:45:00,
2013-03-09 08:48:00,35.6,22.3,30.09,West,268,0.0,2.0,58,0.00,,,0.00,VWS V14.01,2013-03-09 15:48:00,
2013-03-09 08:53:00,36.0,21.4,30.09,WSW,243,0.0,5.0,55,0.00,,,0.00,VWS V14.01,2013-03-09 15:53:00,
2013-03-09 08:58:00,36.7,21.6,30.09,SSW,194,5.0,7.0,54,0.00,,,0.00,VWS V14.01,2013-03-09 15:58:00,
2013-03-09 09:00:00,38.9,20.9,30.10,SW,215,0.0,7.0,48,0.00,,,0.00,VWS V14.01,2013-03-09 16:00:00,
2013-03-09 09:03:00,37.3,21.8,30.09,South,184,3.0,3.0,53,0.00,,,0.00,VWS V14.01,2013-03-09 16:03:00,
2013-03-09 09:08:00,37.8,21.3,30.09,SSW,198,0.0,8.0,51,0.00,,,0.00,VWS V14.01,2013-03-09 16:08:00,
2013-03-09 09:13:00,38.5,21.5,30.09,SSW,209,4.0,9.0,50,0.00,,,0.00,VWS V14.01,2013-03-09 16:13:00,
2013-03-09 09:15:00,39.5,21.0,30.09,WNW,294,2.0,10.0,47,0.00,,,0.00,VWS V14.01,2013-03-09 16:15:00,
2013-03-09 09:18:00,38.9,20.4,30.09,SSW,204,2.0,5.0,47,0.00,,,0.00,VWS V14.01,2013-03-09 16:18:00,
2013-03-09 09:23:00,38.9,20.4,30.09,SSW,198,1.0,8.0,47,0.00,,,0.00,VWS V14.01,2013-03-09 16:23:00,
2013-03-09 09:28:00,39.0,20.5,30.10,SW,234,2.0,8.0,47,0.00,,,0.00,VWS V14.01,2013-03-09 16:28:00,
2013-03-09 09:30:00,39.3,21.3,30.09,West,265,3.0,8.0,48,0.00,,,0.00,VWS V14.01,2013-03-09 16:30:00,
2013-03-09 09:33:00,39.8,21.2,30.10,SW,227,0.0,0.0,47,0.00,,,0.00,VWS V14.01,2013-03-09 16:33:00,
2013-03-09 09:38:00,39.7,20.1,30.10,WSW,242,4.0,7.0,45,0.00,,,0.00,VWS V14.01,2013-03-09 16:38:00,
2013-03-09 09:43:00,38.7,19.7,30.10,West,260,5.0,7.0,46,0.00,,,0.00,VWS V14.01,2013-03-09 16:43:00,
2013-03-09 09:45:00,40.8,21.1,30.09,WSW,247,3.0,13.0,45,0.00,,,0.00,VWS V14.01,2013-03-09 16:45:00,
2013-03-09 09:48:00,38.6,20.6,30.10,SSW,211,4.0,5.0,48,0.00,,,0.00,VWS V14.01,2013-03-09 16:48:00,
2013-03-09 09:53:00,38.5,20.0,30.10,SSW,210,2.0,6.0,47,0.00,,,0.00,VWS V14.01,2013-03-09 16:53:00,
2013-03-09 09:58:00,38.5,20.5,30.10,SSW,210,0.0,6.0,48,0.00,,,0.00,VWS V14.01,2013-03-09 16:58:00,
2013-03-09 10:00:00,39.3,20.3,30.09,SSW,196,7.0,16.0,46,0.00,,,0.00,VWS V14.01,2013-03-09 17:00:00,
2013-03-09 10:03:00,39.0,21.0,30.10,SW,234,0.0,2.0,48,0.00,,,0.00,VWS V14.01,2013-03-09 17:03:00,
2013-03-09 10:08:00,39.6,22.0,30.09,WSW,252,0.0,3.0,49,0.00,,,0.00,VWS V14.01,2013-03-09 17:08:00,
2013-03-09 10:13:00,40.5,21.4,30.09,SSW,213,5.0,10.0,46,0.00,,,0.00,VWS V14.01,2013-03-09 17:13:00,
2013-03-09 10:15:00,40.7,18.3,30.09,West,280,7.0,16.0,40,0.00,,,0.00,VWS V14.01,2013-03-09 17:15:00,
2013-03-09 10:18:00,39.4,20.9,30.09,WNW,295,3.0,6.0,47,0.00,,,0.00,VWS V14.01,2013-03-09 17:18:00,
2013-03-09 10:23:00,38.9,21.4,30.09,NNE,20,0.0,6.0,49,0.00,,,0.00,VWS V14.01,2013-03-09 17:23:00,
2013-03-09 10:28:00,39.7,21.6,30.09,West,277,5.0,6.0,48,0.00,,,0.00,VWS V14.01,2013-03-09 17:28:00,
2013-03-09 10:30:00,41.1,18.6,30.08,SW,231,4.0,14.0,40,0.00,,,0.00,VWS V14.01,2013-03-09 17:30:00,
2013-03-09 10:33:00,39.3,21.3,30.09,West,263,3.0,3.0,48,0.00,,,0.00,VWS V14.01,2013-03-09 17:33:00,
2013-03-09 10:38:00,40.4,21.3,30.09,West,275,4.0,12.0,46,0.00,,,0.00,VWS V14.01,2013-03-09 17:38:00,
2013-03-09 10:43:00,40.7,21.0,30.09,WSW,242,0.0,13.0,45,0.00,,,0.00,VWS V14.01,2013-03-09 17:43:00,
2013-03-09 10:45:00,41.6,20.2,30.08,SW,223,5.0,10.0,42,0.00,,,0.00,VWS V14.01,2013-03-09 17:45:00,
2013-03-09 10:48:00,40.8,21.1,30.09,WSW,246,3.0,5.0,45,0.00,,,0.00,VWS V14.01,2013-03-09 17:48:00,
2013-03-09 10:53:00,39.8,20.7,30.09,WNW,292,4.0,10.0,46,0.00,,,0.00,VWS V14.01,2013-03-09 17:53:00,
2013-03-09 10:58:00,39.5,21.9,30.09,SW,230,2.0,16.0,49,0.00,,,0.00,VWS V14.01,2013-03-09 17:58:00,
2013-03-09 11:00:00,44.5,20.5,30.08,SW,235,8.0,14.0,38,0.00,,,0.00,VWS V14.01,2013-03-09 18:00:00,
2013-03-09 11:03:00,39.5,21.0,30.09,SSW,209,7.0,8.0,47,0.00,,,0.00,VWS V14.01,2013-03-09 18:03:00,
2013-03-09 11:08:00,40.1,21.5,30.08,WNW,303,0.0,8.0,47,0.00,,,0.00,VWS V14.01,2013-03-09 18:08:00,
2013-03-09 11:13:00,41.0,19.1,30.09,West,273,6.0,16.0,41,0.00,,,0.00,VWS V14.01,2013-03-09 18:13:00,
2013-03-09 11:15:00,43.3,19.4,30.07,SSW,200,9.0,18.0,38,0.00,,,0.00,VWS V14.01,2013-03-09 18:15:00,
2013-03-09 11:18:00,40.6,17.6,30.08,WNW,286,10.0,14.0,39,0.00,,,0.00,VWS V14.01,2013-03-09 18:18:00,
2013-03-09 11:23:00,40.6,18.2,30.08,West,281,4.0,14.0,40,0.00,,,0.00,VWS V14.01,2013-03-09 18:23:00,
2013-03-09 11:28:00,41.3,19.4,30.09,WNW,283,6.0,14.0,41,0.00,,,0.00,VWS V14.01,2013-03-09 18:28:00,
2013-03-09 11:30:00,44.2,20.8,30.07,SW,236,7.0,13.0,39,0.00,,,0.00,VWS V14.01,2013-03-09 18:30:00,
2013-03-09 11:33:00,41.1,18.6,30.08,SW,225,4.0,4.0,40,0.00,,,0.00,VWS V14.01,2013-03-09 18:33:00,
2013-03-09 11:39:00,41.4,19.5,30.09,West,271,6.0,8.0,41,0.00,,,0.00,VWS V14.01,2013-03-09 18:39:00,
2013-03-09 11:44:00,41.1,19.2,30.08,WSW,250,7.0,10.0,41,0.00,,,0.00,VWS V14.01,2013-03-09 18:44:00,
2013-03-09 11:45:00,42.5,18.1,30.07,WNW,292,10.0,15.0,37,0.00,,,0.00,VWS V14.01,2013-03-09 18:45:00,
2013-03-09 11:49:00,41.8,20.4,30.08,WSW,254,3.0,9.0,42,0.00,,,0.00,VWS V14.01,2013-03-09 18:49:00,
2013-03-09 11:54:00,42.8,21.3,30.08,WSW,244,0.0,9.0,42,0.00,,,0.00,VWS V14.01,2013-03-09 18:54:00,
2013-03-09 11:59:00,44.2,20.2,30.08,South,180,0.0,14.0,38,0.00,,,0.00,VWS V14.01,2013-03-09 18:59:00,
2013-03-09 12:00:00,42.7,18.9,30.06,WSW,256,2.0,12.0,38,0.00,,,0.00,VWS V14.01,2013-03-09 19:00:00,
2013-03-09 12:04:00,44.2,20.2,30.08,SW,223,0.0,8.0,38,0.00,,,0.00,VWS V14.01,2013-03-09 19:04:00,
2013-03-09 12:09:00,43.1,19.8,30.08,SSW,193,7.0,15.0,39,0.00,,,0.00,VWS V14.01,2013-03-09 19:09:00,
2013-03-09 12:14:00,43.6,19.7,30.07,SW,233,6.0,15.0,38,0.00,,,0.00,VWS V14.01,2013-03-09 19:14:00,
2013-03-09 12:15:00,43.9,19.3,30.06,WNW,283,5.0,17.0,37,0.00,,,0.00,VWS V14.01,2013-03-09 19:15:00,
2013-03-09 12:19:00,43.2,19.3,30.07,SW,232,6.0,12.0,38,0.00,,,0.00,VWS V14.01,2013-03-09 19:19:00,
2013-03-09 12:24:00,43.1,20.4,30.07,SSW,207,6.0,12.0,40,0.00,,,0.00,VWS V14.01,2013-03-09 19:24:00,
2013-03-09 12:29:00,44.1,21.3,30.07,West,260,3.0,13.0,40,0.00,,,0.00,VWS V14.01,2013-03-09 19:29:00,
2013-03-09 12:30:00,43.4,20.1,30.05,NW,312,5.0,18.0,39,0.00,,,0.00,VWS V14.01,2013-03-09 19:30:00,
2013-03-09 12:34:00,44.1,20.7,30.07,SSW,200,9.0,10.0,39,0.00,,,0.00,VWS V14.01,2013-03-09 19:34:00,
2013-03-09 12:39:00,43.8,21.1,30.07,West,263,3.0,11.0,40,0.00,,,0.00,VWS V14.01,2013-03-09 19:39:00,
2013-03-09 12:44:00,43.3,20.0,30.07,West,266,7.0,15.0,39,0.00,,,0.00,VWS V14.01,2013-03-09 19:44:00,
2013-03-09 12:45:00,44.3,17.7,30.05,West,265,12.0,22.0,34,0.00,,,0.00,VWS V14.01,2013-03-09 19:45:00,
2013-03-09 12:49:00,42.3,17.9,30.07,West,269,8.0,11.0,37,0.00,,,0.00,VWS V14.01,2013-03-09 19:49:00,
2013-03-09 12:54:00,41.9,17.5,30.06,WSW,248,1.0,11.0,37,0.00,,,0.00,VWS V14.01,2013-03-09 19:54:00,
2013-03-09 12:59:00,42.3,18.5,30.06,SW,225,2.0,12.0,38,0.00,,,0.00,VWS V14.01,2013-03-09 19:59:00,
2013-03-09 13:00:00,45.5,17.4,30.05,SSW,209,13.0,20.0,32,0.00,,,0.00,VWS V14.01,2013-03-09 20:00:00,
2013-03-09 13:04:00,43.0,19.1,30.06,WSW,239,10.0,13.0,38,0.00,,,0.00,VWS V14.01,2013-03-09 20:04:00,
2013-03-09 13:09:00,43.7,19.1,30.06,WNW,286,6.0,16.0,37,0.00,,,0.00,VWS V14.01,2013-03-09 20:09:00,
2013-03-09 13:14:00,44.4,19.8,30.06,SSW,207,7.0,17.0,37,0.00,,,0.00,VWS V14.01,2013-03-09 20:14:00,
2013-03-09 13:15:00,42.5,23.2,30.06,NW,318,15.0,21.0,46,0.00,,,0.00,VWS V14.01,2013-03-09 20:15:00,
2013-03-09 13:19:00,43.5,19.6,30.06,WSW,257,5.0,9.0,38,0.00,,,0.00,VWS V14.01,2013-03-09 20:19:00,
2013-03-09 13:24:00,42.7,17.6,30.06,West,275,4.0,12.0,36,0.00,,,0.00,VWS V14.01,2013-03-09 20:24:00,
2013-03-09 13:29:00,42.7,17.6,30.05,WNW,303,1.0,15.0,36,0.00,,,0.00,VWS V14.01,2013-03-09 20:29:00,
2013-03-09 13:30:00,42.2,20.2,30.07,West,267,5.0,22.0,41,0.00,,,0.00,VWS V14.01,2013-03-09 20:30:00,
2013-03-09 13:34:00,43.9,21.7,30.05,WNW,288,5.0,7.0,41,0.00,,,0.00,VWS V14.01,2013-03-09 20:34:00,
2013-03-09 13:39:00,43.9,20.6,30.05,NNW,341,5.0,12.0,39,0.00,,,0.00,VWS V14.01,2013-03-09 20:39:00,
2013-03-09 13:44:00,44.0,21.2,30.05,NW,306,3.0,13.0,40,0.00,,,0.00,VWS V14.01,2013-03-09 20:44:00,
2013-03-09 13:45:00,43.6,18.4,30.07,West,265,7.0,24.0,36,0.00,,,0.00,VWS V14.01,2013-03-09 20:45:00,
2013-03-09 13:49:00,44.1,16.9,30.05,West,272,11.0,16.0,33,0.00,,,0.00,VWS V14.01,2013-03-09 20:49:00,
2013-03-09 13:54:00,44.6,17.3,30.05,WSW,245,4.0,16.0,33,0.00,,,0.00,VWS V14.01,2013-03-09 20:54:00,
2013-03-09 13:59:00,44.4,15.7,30.06,WSW,245,10.0,20.0,31,0.00,,,0.00,VWS V14.01,2013-03-09 20:59:00,
2013-03-09 14:00:00,43.3,20.0,30.07,WSW,257,10.0,19.0,39,0.00,,,0.00,VWS V14.01,2013-03-09 21:00:00,
2013-03-09 14:04:00,46.0,17.8,30.05,WNW,288,7.0,18.0,32,0.00,,,0.00,VWS V14.01,2013-03-09 21:04:00,
2013-03-09 14:09:00,45.4,17.3,30.06,WNW,295,4.0,18.0,32,0.00,,,0.00,VWS V14.01,2013-03-09 21:09:00,
2013-03-09 14:14:00,43.9,22.3,30.06,NW,323,8.0,21.0,42,0.00,,,0.00,VWS V14.01,2013-03-09 21:14:00,
2013-03-09 14:15:00,44.2,18.3,30.07,WSW,240,6.0,15.0,35,0.00,,,0.00,VWS V14.01,2013-03-09 21:15:00,
2013-03-09 14:19:00,41.9,22.1,30.06,NW,318,16.0,20.0,45,0.00,,,0.00,VWS V14.01,2013-03-09 21:19:00,
2013-03-09 14:24:00,42.0,22.2,30.07,West,271,7.0,22.0,45,0.00,,,0.00,VWS V14.01,2013-03-09 21:24:00,
2013-03-09 14:29:00,42.2,21.3,30.07,WNW,288,12.0,22.0,43,0.00,,,0.00,VWS V14.01,2013-03-09 21:29:00,
2013-03-09 14:30:00,43.3,18.2,30.08,WSW,244,7.0,13.0,36,0.00,,,0.00,VWS V14.01,2013-03-09 21:30:00,
2013-03-09 14:34:00,42.6,20.6,30.07,WNW,298,4.0,12.0,41,0.00,,,0.00,VWS V14.01,2013-03-09 21:34:00,
2013-03-09 14:39:00,43.0,19.1,30.07,WSW,258,7.0,17.0,38,0.00,,,0.00,VWS V14.01,2013-03-09 21:39:00,
2013-03-09 14:44:00,43.4,18.2,30.07,NW,311,12.0,24.0,36,0.00,,,0.00,VWS V14.01,2013-03-09 21:44:00,
2013-03-09 14:45:00,43.4,17.6,30.08,West,263,6.0,17.0,35,0.00,,,0.00,VWS V14.01,2013-03-09 21:45:00,
2013-03-09 14:49:00,43.5,19.0,30.07,WNW,282,11.0,16.0,37,0.00,,,0.00,VWS V14.01,2013-03-09 21:49:00,
2013-03-09 14:54:00,43.9,19.3,30.07,WNW,303,3.0,16.0,37,0.00,,,0.00,VWS V14.01,2013-03-09 21:54:00,
2013-03-09 14:59:00,43.6,19.7,30.07,West,276,13.0,19.0,38,0.00,,,0.00,VWS V14.01,2013-03-09 21:59:00,
2013-03-09 15:00:00,43.5,17.7,30.08,WSW,255,6.0,16.0,35,0.00,,,0.00,VWS V14.01,2013-03-09 22:00:00,
2013-03-09 15:05:00,43.2,18.7,30.07,WNW,294,7.0,10.0,37,0.00,,,0.00,VWS V14.01,2013-03-09 22:05:00,
2013-03-09 15:10:00,43.4,18.9,30.08,WNW,296,6.0,12.0,37,0.00,,,0.00,VWS V14.01,2013-03-09 22:10:00,
2013-03-09 15:15:00,43.8,17.3,30.07,NW,314,3.0,15.0,34,0.00,,,0.00,VWS V14.01,2013-03-09 22:15:00,
2013-03-09 15:20:00,44.4,18.5,30.08,WNW,290,4.0,12.0,35,0.00,,,0.00,VWS V14.01,2013-03-09 22:20:00,
2013-03-09 15:25:00,44.2,18.3,30.08,West,268,5.0,12.0,35,0.00,,,0.00,VWS V14.01,2013-03-09 22:25:00,
2013-03-09 15:30:00,43.6,18.4,30.08,West,271,8.0,13.0,36,0.00,,,0.00,VWS V14.01,2013-03-09 22:30:00,
2013-03-09 15:35:00,43.2,17.4,30.08,WNW,302,3.0,11.0,35,0.00,,,0.00,VWS V14.01,2013-03-09 22:35:00,
2013-03-09 15:40:00,43.1,18.0,30.08,WSW,257,8.0,11.0,36,0.00,,,0.00,VWS V14.01,2013-03-09 22:40:00,
2013-03-09 15:45:00,43.1,17.3,30.08,WNW,283,8.0,17.0,35,0.00,,,0.00,VWS V14.01,2013-03-09 22:45:00,
2013-03-09 15:50:00,43.6,17.8,30.08,West,263,9.0,10.0,35,0.00,,,0.00,VWS V14.01,2013-03-09 22:50:00,
2013-03-09 15:55:00,43.2,17.4,30.08,West,278,4.0,15.0,35,0.00,,,0.00,VWS V14.01,2013-03-09 22:55:00,
2013-03-09 16:00:00,43.5,17.7,30.08,West,277,10.0,16.0,35,0.00,,,0.00,VWS V14.01,2013-03-09 23:00:00,
2013-03-09 16:05:00,43.4,17.6,30.08,WSW,241,7.0,10.0,35,0.00,,,0.00,VWS V14.01,2013-03-09 23:05:00,
2013-03-09 16:10:00,43.2,16.7,30.08,NW,323,4.0,13.0,34,0.00,,,0.00,VWS V14.01,2013-03-09 23:10:00,
2013-03-09 16:15:00,43.4,17.6,30.09,West,264,7.0,13.0,35,0.00,,,0.00,VWS V14.01,2013-03-09 23:15:00,
2013-03-09 16:20:00,43.1,17.3,30.09,WNW,302,9.0,14.0,35,0.00,,,0.00,VWS V14.01,2013-03-09 23:20:00,
2013-03-09 16:25:00,42.8,19.0,30.09,NW,304,2.0,14.0,38,0.00,,,0.00,VWS V14.01,2013-03-09 23:25:00,
2013-03-09 16:30:00,42.8,17.7,30.09,SW,235,7.0,14.0,36,0.00,,,0.00,VWS V14.01,2013-03-09 23:30:00,
2013-03-09 16:35:00,42.9,18.4,30.09,NW,317,6.0,14.0,37,0.00,,,0.00,VWS V14.01,2013-03-09 23:35:00,
2013-03-09 16:40:00,43.1,18.6,30.10,WSW,257,11.0,14.0,37,0.00,,,0.00,VWS V14.01,2013-03-09 23:40:00,
2013-03-09 16:45:00,42.8,19.0,30.10,WSW,257,7.0,17.0,38,0.00,,,0.00,VWS V14.01,2013-03-09 23:45:00,
2013-03-09 16:50:00,42.8,19.0,30.10,WSW,237,6.0,12.0,38,0.00,,,0.00,VWS V14.01,2013-03-09 23:50:00,
2013-03-09 16:55:00,42.7,18.9,30.10,WNW,291,4.0,12.0,38,0.00,,,0.00,VWS V14.01,2013-03-09 23:55:00,
2013-03-09 17:00:00,42.8,19.0,30.10,NNW,344,5.0,12.0,38,0.00,,,0.00,VWS V14.01,2013-03-10 00:00:00,
2013-03-09 17:05:00,42.9,19.7,30.10,West,276,1.0,7.0,39,0.00,,,0.00,VWS V14.01,2013-03-10 00:05:00,
2013-03-09 17:10:00,42.8,19.0,30.10,NW,306,0.0,7.0,38,0.00,,,0.00,VWS V14.01,2013-03-10 00:10:00,
2013-03-09 17:15:00,42.2,24.9,30.11,North,9,0.0,7.0,50,0.00,,,0.00,VWS V14.01,2013-03-10 00:15:00,
2013-03-09 17:20:00,41.1,25.3,30.11,North,360,3.0,4.0,53,0.00,,,0.00,VWS V14.01,2013-03-10 00:20:00,
2013-03-09 17:25:00,40.8,25.9,30.12,NNE,19,4.0,8.0,55,0.00,,,0.00,VWS V14.01,2013-03-10 00:25:00,
2013-03-09 17:30:00,40.5,26.9,30.12,North,11,3.0,8.0,58,0.00,,,0.00,VWS V14.01,2013-03-10 00:30:00,
2013-03-09 17:35:00,40.5,26.9,30.12,NNW,348,6.0,10.0,58,0.00,,,0.00,VWS V14.01,2013-03-10 00:35:00,
2013-03-09 17:40:00,40.5,25.6,30.13,NW,319,6.0,11.0,55,0.00,,,0.00,VWS V14.01,2013-03-10 00:40:00,
2013-03-09 17:45:00,40.5,26.0,30.13,NNW,340,5.0,11.0,56,0.00,,,0.00,VWS V14.01,2013-03-10 00:45:00,
2013-03-09 17:50:00,40.4,26.0,30.14,North,355,5.0,10.0,56,0.00,,,0.00,VWS V14.01,2013-03-10 00:50:00,
2013-03-09 17:55:00,40.3,25.9,30.14,NNW,336,2.0,10.0,56,0.00,,,0.00,VWS V14.01,2013-03-10 00:55:00,
2013-03-09 18:00:00,40.4,26.0,30.14,NW,325,2.0,10.0,56,0.00,,,0.00,VWS V14.01,2013-03-10 01:00:00,
2013-03-09 18:05:00,40.5,24.7,30.14,WNW,288,9.0,13.0,53,0.00,,,0.00,VWS V14.01,2013-03-10 01:05:00,
2013-03-09 18:10:00,40.5,24.7,30.15,NW,322,8.0,14.0,53,0.00,,,0.00,VWS V14.01,2013-03-10 01:10:00,
2013-03-09 18:15:00,40.4,24.6,30.15,WNW,301,1.0,14.0,53,0.00,,,0.00,VWS V14.01,2013-03-10 01:15:00,
2013-03-09 18:20:00,40.2,24.9,30.16,WNW,294,2.0,8.0,54,0.00,,,0.00,VWS V14.01,2013-03-10 01:20:00,
2013-03-09 18:25:00,39.9,25.1,30.16,NW,315,2.0,10.0,55,0.00,,,0.00,VWS V14.01,2013-03-10 01:25:00,
2013-03-09 18:30:00,39.5,25.1,30.17,NW,306,2.0,11.0,56,0.00,,,0.00,VWS V14.01,2013-03-10 01:30:00,
2013-03-09 18:35:00,39.2,25.3,30.17,NW,322,7.0,10.0,57,0.00,,,0.00,VWS V14.01,2013-03-10 01:35:00,
2013-03-09 18:40:00,39.0,25.1,30.17,NW,318,6.0,10.0,57,0.00,,,0.00,VWS V14.01,2013-03-10 01:40:00,
2013-03-09 18:45:00,38.8,25.3,30.17,NNW,332,1.0,10.0,58,0.00,,,0.00,VWS V14.01,2013-03-10 01:45:00,
2013-03-09 18:50:00,38.6,25.1,30.18,NW,317,4.0,5.0,58,0.00,,,0.00,VWS V14.01,2013-03-10 01:50:00,
2013-03-09 18:55:00,38.4,25.3,30.19,NNW,346,2.0,5.0,59,0.00,,,0.00,VWS V14.01,2013-03-10 01:55:00,
2013-03-09 19:00:00,37.8,26.0,30.19,NNW,344,2.0,7.0,62,0.00,,,0.00,VWS V14.01,2013-03-10 02:00:00,
2013-03-09 19:05:00,37.2,26.2,30.19,North,355,5.0,5.0,64,0.00,,,0.00,VWS V14.01,2013-03-10 02:05:00,
2013-03-09 19:10:00,36.9,26.6,30.20,North,9,2.0,5.0,66,0.00,,,0.00,VWS V14.01,2013-03-10 02:10:00,
2013-03-09 19:15:00,36.7,26.8,30.20,North,5,0.0,5.0,67,0.00,,,0.00,VWS V14.01,2013-03-10 02:15:00,
2013-03-09 19:20:00,36.6,27.0,30.21,North,360,0.0,0.0,68,0.00,,,0.00,VWS V14.01,2013-03-10 02:20:00,
2013-03-09 19:25:00,36.6,27.0,30.21,North,360,0.0,3.0,68,0.00,,,0.00,VWS V14.01,2013-03-10 02:25:00,
2013-03-09 19:30:00,36.6,27.4,30.21,North,5,0.0,3.0,69,0.00,,,0.00,VWS V14.01,2013-03-10 02:30:00,
2013-03-09 19:35:00,36.5,27.3,30.21,North,360,0.0,0.0,69,0.00,,,0.00,VWS V14.01,2013-03-10 02:35:00,
2013-03-09 19:40:00,36.5,27.3,30.21,North,360,0.0,0.0,69,0.00,,,0.00,VWS V14.01,2013-03-10 02:40:00,
2013-03-09 19:45:00,36.4,27.6,30.21,North,5,0.0,0.0,70,0.00,,,0.00,VWS V14.01,2013-03-10 02:45:00,
2013-03-09 19:50:00,36.4,27.6,30.22,North,5,0.0,3.0,70,0.00,,,0.00,VWS V14.01,2013-03-10 02:50:00,
2013-03-09 19:55:00,36.4,27.9,30.22,North,5,0.0,3.0,71,0.00,,,0.00,VWS V14.01,2013-03-10 02:55:00,
2013-03-09 20:00:00,36.5,28.0,30.22,NNW,340,3.0,4.0,71,0.00,,,0.00,VWS V14.01,2013-03-10 03:00:00,
2013-03-09 20:05:00,36.4,28.2,30.22,North,355,1.0,5.0,72,0.00,,,0.00,VWS V14.01,2013-03-10 03:05:00,
2013-03-09 20:10:00,36.2,28.4,30.22,NW,306,1.0,6.0,73,0.00,,,0.00,VWS V14.01,2013-03-10 03:10:00,
2013-03-09 20:15:00,36.3,28.8,30.23,WNW,297,4.0,7.0,74,0.00,,,0.00,VWS V14.01,2013-03-10 03:15:00,
2013-03-09 20:20:00,36.3,28.8,30.23,NW,313,4.0,10.0,74,0.00,,,0.00,VWS V14.01,2013-03-10 03:20:00,
2013-03-09 20:25:00,36.2,28.7,30.23,NW,304,0.0,10.0,74,0.00,,,0.00,VWS V14.01,2013-03-10 03:25:00,
2013-03-09 20:30:00,36.2,29.0,30.23,NW,306,0.0,10.0,75,0.00,,,0.00,VWS V14.01,2013-03-10 03:30:00,
2013-03-09 20:35:00,36.0,28.9,30.23,NW,307,1.0,6.0,75,0.00,,,0.00,VWS V14.01,2013-03-10 03:35:00,
2013-03-09 20:40:00,35.9,28.8,30.24,NW,313,2.0,6.0,75,0.00,,,0.00,VWS V14.01,2013-03-10 03:40:00,
2013-03-09 20:45:00,35.8,28.7,30.24,NW,313,0.0,6.0,75,0.00,,,0.00,VWS V14.01,2013-03-10 03:45:00,
2013-03-09 20:50:00,35.6,28.5,30.24,NW,313,0.0,3.0,75,0.00,,,0.00,VWS V14.01,2013-03-10 03:50:00,
2013-03-09 20:55:00,35.5,28.4,30.24,NW,313,0.0,3.0,75,0.00,,,0.00,VWS V14.01,2013-03-10 03:55:00,
2013-03-09 21:00:00,35.4,28.3,30.24,NW,313,0.0,3.0,75,0.00,,,0.00,VWS V14.01,2013-03-10 04:00:00,
2013-03-09 21:05:00,35.3,28.2,30.25,NW,313,0.0,0.0,75,0.00,,,0.00,VWS V14.01,2013-03-10 04:05:00,
2013-03-09 21:10:00,35.2,28.1,30.25,NW,313,0.0,0.0,75,0.00,,,0.00,VWS V14.01,2013-03-10 04:10:00,
2013-03-09 21:15:00,34.4,28.0,30.27,NW,313,0.0,0.0,77,0.00,,,0.00,VWS V14.01,2013-03-10 04:15:00,
2013-03-09 21:16:00,35.0,27.9,30.25,NW,313,0.0,0.0,75,0.00,,,0.00,VWS V14.01,2013-03-10 04:16:00,
2013-03-09 21:21:00,34.8,28.0,30.25,NW,313,0.0,0.0,76,0.00,,,0.00,VWS V14.01,2013-03-10 04:21:00,
2013-03-09 21:26:00,34.6,27.8,30.25,NW,313,0.0,0.0,76,0.00,,,0.00,VWS V14.01,2013-03-10 04:26:00,
2013-03-09 21:30:00,34.2,27.4,30.27,NW,313,0.0,0.0,76,0.00,,,0.00,VWS V14.01,2013-03-10 04:30:00,
2013-03-09 21:31:00,34.4,27.6,30.25,NW,313,0.0,0.0,76,0.00,,,0.00,VWS V14.01,2013-03-10 04:31:00,
2013-03-09 21:36:00,34.4,27.6,30.25,NW,313,0.0,0.0,76,0.00,,,0.00,VWS V14.01,2013-03-10 04:36:00,
2013-03-09 21:41:00,34.4,27.6,30.26,NW,313,0.0,0.0,76,0.00,,,0.00,VWS V14.01,2013-03-10 04:41:00,
2013-03-09 21:45:00,33.9,27.5,30.27,NW,313,0.0,0.0,77,0.00,,,0.00,VWS V14.01,2013-03-10 04:45:00,
2013-03-09 21:46:00,34.4,28.0,30.26,NW,313,0.0,0.0,77,0.00,,,0.00,VWS V14.01,2013-03-10 04:46:00,
2013-03-09 21:51:00,34.4,28.0,30.26,NW,313,0.0,0.0,77,0.00,,,0.00,VWS V14.01,2013-03-10 04:51:00,
2013-03-09 21:56:00,34.5,27.7,30.26,NW,313,0.0,0.0,76,0.00,,,0.00,VWS V14.01,2013-03-10 04:56:00,
2013-03-09 22:00:00,34.4,27.6,30.26,NW,313,0.0,0.0,76,0.00,,,0.00,VWS V14.01,2013-03-10 05:00:00,
2013-03-09 22:05:00,34.4,28.0,30.26,NW,313,0.0,0.0,77,0.00,,,0.00,VWS V14.01,2013-03-10 05:05:00,
2013-03-09 22:10:00,34.2,27.8,30.27,NW,313,0.0,0.0,77,0.00,,,0.00,VWS V14.01,2013-03-10 05:10:00,
2013-03-09 22:15:00,34.3,27.9,30.27,NW,313,0.0,0.0,77,0.00,,,0.00,VWS V14.01,2013-03-10 05:15:00,
2013-03-09 22:20:00,34.4,27.6,30.27,NW,313,0.0,0.0,76,0.00,,,0.00,VWS V14.01,2013-03-10 05:20:00,
2013-03-09 22:25:00,34.4,28.0,30.27,NW,313,0.0,0.0,77,0.00,,,0.00,VWS V14.01,2013-03-10 05:25:00,
2013-03-09 22:30:00,34.3,27.5,30.27,NW,313,0.0,0.0,76,0.00,,,0.00,VWS V14.01,2013-03-10 05:30:00,
2013-03-09 22:35:00,34.1,27.7,30.27,NW,313,0.0,0.0,77,0.00,,,0.00,VWS V14.01,2013-03-10 05:35:00,
2013-03-09 22:40:00,33.9,27.5,30.27,NW,313,0.0,0.0,77,0.00,,,0.00,VWS V14.01,2013-03-10 05:40:00,
2013-03-09 22:45:00,33.8,27.4,30.27,NW,313,0.0,0.0,77,0.00,,,0.00,VWS V14.01,2013-03-10 05:45:00,
2013-03-09 22:50:00,33.8,27.4,30.27,NW,313,0.0,0.0,77,0.00,,,0.00,VWS V14.01,2013-03-10 05:50:00,
2013-03-09 22:55:00,34.0,27.6,30.27,NW,313,0.0,0.0,77,0.00,,,0.00,VWS V14.01,2013-03-10 05:55:00,
2013-03-09 23:00:00,34.4,28.0,30.27,NW,313,0.0,0.0,77,0.00,,,0.00,VWS V14.01,2013-03-10 06:00:00,
2013-03-09 23:05:00,34.6,27.8,30.27,NW,313,0.0,0.0,76,0.00,,,0.00,VWS V14.01,2013-03-10 06:05:00,
2013-03-09 23:10:00,34.9,28.1,30.27,NW,313,0.0,0.0,76,0.00,,,0.00,VWS V14.01,2013-03-10 06:10:00,
2013-03-09 23:15:00,35.1,28.0,30.28,NW,313,0.0,0.0,75,0.00,,,0.00,VWS V14.01,2013-03-10 06:15:00,
2013-03-09 23:20:00,35.3,28.2,30.27,NW,313,2.0,3.0,75,0.00,,,0.00,VWS V14.01,2013-03-10 06:20:00,
2013-03-09 23:25:00,35.5,28.0,30.27,NW,313,3.0,4.0,74,0.00,,,0.00,VWS V14.01,2013-03-10 06:25:00,
2013-03-09 23:30:00,35.7,28.2,30.28,NW,311,3.0,5.0,74,0.00,,,0.00,VWS V14.01,2013-03-10 06:30:00,
2013-03-09 23:35:00,35.7,28.2,30.28,NW,308,0.0,5.0,74,0.00,,,0.00,VWS V14.01,2013-03-10 06:35:00,
2013-03-09 23:40:00,35.7,27.9,30.27,WNW,302,2.0,5.0,73,0.00,,,0.00,VWS V14.01,2013-03-10 06:40:00,
2013-03-09 23:45:00,35.6,27.8,30.28,WNW,298,1.0,5.0,73,0.00,,,0.00,VWS V14.01,2013-03-10 06:45:00,
2013-03-09 23:50:00,35.5,27.7,30.28,WNW,298,0.0,3.0,73,0.00,,,0.00,VWS V14.01,2013-03-10 06:50:00,
2013-03-09 23:55:00,35.3,27.9,30.28,WNW,298,0.0,3.0,74,0.00,,,0.00,VWS V14.01,2013-03-10 06:55:00,